Cherryvale, Kansas
Current Conditions -  °F | °C
As of 3:52 AM on Tuesday 27 Jan 2015 (Local Time) from KPPF Reporting Station
Clear Clear  
Wind Chill: 31°   Ceiling: Unl
Heat Index: 31°   Visibility: 10mi
Dew Point: 29°   Wind: 0mph
Humidity: 92%   Direction: NA
Pressure: 30.09"   Gusts: NA
Location:  37.27°N, 95.55°W
Report Text: KPPF 270952Z AUTO 00000KT 10SM CLR M01/M02 A3009 RMK AO2 SLP190 T10061017
Loading
Personal Weather Stations






























Interactive Weather Map New forecast layout! Learn more

10-Day Weather Forecast

Advertisements
Track Severe Weather on mobile